Corona, New Mexico
Current Conditions -  °F | °C
As of 12:53 PM on Friday 24 Oct 2014 (Local Time) from KCQC Reporting Station
Clear Clear  
Wind Chill: 73°   Ceiling: Unl
Heat Index: 73°   Visibility: 10mi
Dew Point: 25°   Wind: 23mph
Humidity: 17%   Direction: 290°WNW
Pressure: 30.33"   Gusts: 30mph
Location:  34.25°N, 105.6°W
Report Text: KCQC 241853Z AUTO 29020G26KT 10SM CLR 23/M04 A3033 RMK AO2 PK WND 29026/1853 SLP193 T02281039
Loading
Personal Weather Stations






























Interactive Weather Map
Tropical Storm Tracking
New forecast layout! Learn more

10-Day Weather Forecast

Advertisements
Track Severe Weather on mobile